createdAt,value
2023-04-15T00:00:13.388Z,99551.54
2023-04-15T00:02:47.074Z,99546.02
2023-04-15T00:05:21.527Z,99548.01
2023-04-15T00:07:55.149Z,99548.48
2023-04-15T00:10:28.542Z,99549.14
2023-04-15T00:13:02.121Z,99548.41
2023-04-15T00:15:44.169Z,99544.40
2023-04-15T00:18:29.645Z,99545.56
2023-04-15T00:21:00.498Z,99548.33
2023-04-15T00:23:31.476Z,99543.75
2023-04-15T00:26:13.541Z,99539.20
2023-04-15T00:29:04.391Z,99538.92
2023-04-15T00:31:37.118Z,99537.13
2023-04-15T00:34:07.715Z,99536.71
2023-04-15T00:36:38.439Z,99533.48
2023-04-15T00:39:29.677Z,99534.64
2023-04-15T00:42:10.630Z,99532.14
2023-04-15T00:45:01.686Z,99531.89
2023-04-15T00:47:34.715Z,99533.09
2023-04-15T00:50:25.821Z,99531.39
2023-04-15T00:53:07.480Z,99528.66
2023-04-15T00:55:38.570Z,99526.64
2023-04-15T00:58:09.099Z,99527.45
2023-04-15T01:01:00.961Z,99527.55
2023-04-15T01:03:34.819Z,99526.77
2023-04-15T01:06:17.301Z,99529.64
2023-04-15T01:08:59.270Z,99531.59
2023-04-15T01:11:50.214Z,99533.77
2023-04-15T01:14:41.335Z,99531.80
2023-04-15T01:17:12.599Z,99529.84
2023-04-15T01:19:47.964Z,99532.34
2023-04-15T01:22:39.480Z,99531.02
2023-04-15T01:25:20.570Z,99527.73
2023-04-15T01:27:53.392Z,99530.05
2023-04-15T01:30:26.966Z,99528.70
2023-04-15T01:33:07.608Z,99530.59
2023-04-15T01:35:44.228Z,99532.06
2023-04-15T01:38:36.219Z,99532.56
2023-04-15T01:41:08.171Z,99530.23
2023-04-15T01:43:48.444Z,99535.39
2023-04-15T01:46:39.348Z,99534.66
2023-04-15T01:49:12.835Z,99530.70
2023-04-15T01:51:54.967Z,99531.59
2023-04-15T01:54:29.154Z,99534.19
2023-04-15T01:57:02.242Z,99534.17
2023-04-15T01:59:35.173Z,99534.69
2023-04-15T02:02:26.595Z,99535.64
2023-04-15T02:05:14.750Z,99536.98
2023-04-15T02:07:50.781Z,99534.18
2023-04-15T02:10:31.118Z,99532.88
2023-04-15T02:13:02.594Z,99534.97
2023-04-15T02:15:33.327Z,99534.48
2023-04-15T02:18:09.071Z,99533.70
2023-04-15T02:20:47.202Z,99532.60
2023-04-15T02:23:16.891Z,99531.98
2023-04-15T02:25:53.553Z,99538.86
2023-04-15T02:28:38.264Z,99537.79
2023-04-15T02:31:09.793Z,99540.55
2023-04-15T02:33:42.976Z,99546.02
2023-04-15T02:36:16.099Z,99546.30
2023-04-15T02:38:47.740Z,99544.27
2023-04-15T02:41:30.538Z,99544.38
2023-04-15T02:44:13.103Z,99544.12
2023-04-15T02:47:00.354Z,99545.02
2023-04-15T02:49:31.089Z,99544.53
2023-04-15T02:52:07.178Z,99545.55
2023-04-15T02:54:37.854Z,99547.98
2023-04-15T02:57:18.488Z,99544.33
2023-04-15T03:00:11.809Z,99542.97
2023-04-15T03:02:45.653Z,99540.06
2023-04-15T03:05:25.501Z,99542.03
2023-04-15T03:08:16.693Z,99547.63
2023-04-15T03:10:47.392Z,99548.73
2023-04-15T03:13:28.148Z,99551.22
2023-04-15T03:15:59.690Z,99551.77
2023-04-15T03:18:29.695Z,99556.52
2023-04-15T03:21:05.242Z,99558.16
2023-04-15T03:23:38.887Z,99560.65
2023-04-15T03:26:31.710Z,99553.63
2023-04-15T03:29:25.932Z,99548.31
2023-04-15T03:32:16.790Z,99548.37
2023-04-15T03:34:52.197Z,99549.10
2023-04-15T03:37:22.843Z,99552.94
2023-04-15T03:39:53.389Z,99554.84
2023-04-15T03:42:35.200Z,99550.14
2023-04-15T03:45:10.111Z,99554.66
2023-04-15T03:47:40.844Z,99553.79
2023-04-15T03:50:19.019Z,99553.21
2023-04-15T03:52:51.132Z,99549.39
2023-04-15T03:55:25.612Z,99545.52
2023-04-15T03:58:06.576Z,99543.25
2023-04-15T04:00:45.936Z,99541.30
2023-04-15T04:03:19.059Z,99538.83
2023-04-15T04:05:49.953Z,99535.34
2023-04-15T04:08:21.769Z,99534.14
2023-04-15T04:11:02.580Z,99534.66
2023-04-15T04:13:33.185Z,99532.73
2023-04-15T04:16:04.723Z,99534.83
2023-04-15T04:18:35.912Z,99539.17
2023-04-15T04:21:10.021Z,99544.12
2023-04-15T04:23:53.754Z,99546.63
2023-04-15T04:26:27.517Z,99548.89
2023-04-15T04:28:58.433Z,99550.67
2023-04-15T04:31:29.251Z,99554.89
2023-04-15T04:34:02.080Z,99555.83
2023-04-15T04:36:52.343Z,99552.41
2023-04-15T04:39:22.895Z,99554.51
2023-04-15T04:42:03.677Z,99550.95
2023-04-15T04:44:34.215Z,99554.30
2023-04-15T04:47:14.704Z,99558.92
2023-04-15T04:49:47.909Z,99560.45
2023-04-15T04:52:39.224Z,99562.69
2023-04-15T04:55:10.606Z,99562.68
2023-04-15T04:57:59.670Z,99568.10
2023-04-15T05:00:30.314Z,99568.61
2023-04-15T05:03:13.971Z,99571.38
2023-04-15T05:05:44.891Z,99572.05
2023-04-15T05:08:20.057Z,99573.21
2023-04-15T05:10:55.038Z,99576.63
2023-04-15T05:13:34.742Z,99577.11
2023-04-15T05:16:05.589Z,99583.48
2023-04-15T05:18:39.196Z,99584.11
2023-04-15T05:21:09.906Z,99586.70
2023-04-15T05:23:42.921Z,99587.56
2023-04-15T05:26:24.277Z,99585.81
2023-04-15T05:28:57.940Z,99587.35
2023-04-15T05:31:31.419Z,99585.67
2023-04-15T05:34:22.564Z,99588.40
2023-04-15T05:36:56.251Z,99589.54
2023-04-15T05:39:29.470Z,99584.71
2023-04-15T05:42:11.389Z,99579.54
2023-04-15T05:45:05.442Z,99580.14
2023-04-15T05:47:39.264Z,99577.14
2023-04-15T05:50:30.029Z,99574.11
2023-04-15T05:53:09.606Z,99574.88
2023-04-15T05:55:43.688Z,99585.74
2023-04-15T05:58:34.358Z,99593.08
2023-04-15T06:01:05.684Z,99596.55
2023-04-15T06:03:47.647Z,99598.26
2023-04-15T06:06:18.706Z,99596.67
2023-04-15T06:09:10.123Z,99597.65
2023-04-15T06:11:39.153Z,99596.20
2023-04-15T06:14:12.993Z,99592.64
2023-04-15T06:16:43.602Z,99590.69
2023-04-15T06:19:16.854Z,99592.80
2023-04-15T06:22:08.178Z,99595.88
2023-04-15T06:24:38.994Z,99604.20
2023-04-15T06:27:20.332Z,99607.93
2023-04-15T06:30:04.949Z,99611.28
2023-04-15T06:32:46.666Z,99609.51
2023-04-15T06:35:37.652Z,99609.77
2023-04-15T06:38:11.093Z,99608.87
2023-04-15T06:40:46.271Z,99612.81
2023-04-15T06:43:16.953Z,99616.90
2023-04-15T06:45:49.770Z,99617.70
2023-04-15T06:48:20.670Z,99615.63
2023-04-15T06:50:54.470Z,99614.11
2023-04-15T06:53:28.536Z,99612.30
2023-04-15T06:56:19.082Z,99608.27
2023-04-15T06:58:52.359Z,99606.45
2023-04-15T07:01:23.166Z,99608.73
2023-04-15T07:03:57.121Z,99611.46
2023-04-15T07:06:27.574Z,99612.56
2023-04-15T07:09:01.580Z,99612.94
2023-04-15T07:11:32.558Z,99605.86
2023-04-15T07:14:03.068Z,99602.00
2023-04-15T07:16:33.852Z,99603.89
2023-04-15T07:19:04.705Z,99600.01
2023-04-15T07:21:40.045Z,99597.80
2023-04-15T07:24:23.268Z,99597.84
2023-04-15T07:26:52.277Z,99602.39
2023-04-15T07:29:22.789Z,99602.27
2023-04-15T07:31:53.291Z,99602.05
2023-04-15T07:34:24.599Z,99603.35
2023-04-15T07:37:06.616Z,99605.54
2023-04-15T07:39:37.282Z,99604.64
2023-04-15T07:42:10.523Z,99606.90
2023-04-15T07:45:01.273Z,99605.52
2023-04-15T07:47:42.975Z,99603.23
2023-04-15T07:50:33.725Z,99606.60
2023-04-15T07:53:04.362Z,99608.46
2023-04-15T07:55:45.942Z,99607.82
2023-04-15T07:58:19.547Z,99604.45
2023-04-15T08:00:55.177Z,99607.66
2023-04-15T08:03:29.475Z,99608.13
2023-04-15T08:06:14.609Z,99609.83
2023-04-15T08:08:48.332Z,99612.45
2023-04-15T08:11:18.827Z,99609.90
2023-04-15T08:13:49.406Z,99613.13
2023-04-15T08:16:27.606Z,99606.73
2023-04-15T08:19:00.432Z,99606.25
2023-04-15T08:21:31.745Z,99610.04
2023-04-15T08:24:11.494Z,99615.14
2023-04-15T08:26:42.091Z,99617.34
2023-04-15T08:29:12.722Z,99615.52
2023-04-15T08:31:43.505Z,99614.17
2023-04-15T08:34:14.309Z,99610.73
2023-04-15T08:36:45.005Z,99609.16
2023-04-15T08:39:15.653Z,99611.71
2023-04-15T08:41:49.181Z,99609.30
2023-04-15T08:44:22.059Z,99608.31
2023-04-15T08:46:57.736Z,99610.89
2023-04-15T08:49:30.731Z,99611.84
2023-04-15T08:52:04.427Z,99610.59
2023-04-15T08:54:37.609Z,99613.65
2023-04-15T08:57:17.888Z,99603.86
2023-04-15T08:59:49.570Z,99604.70
2023-04-15T09:02:20.943Z,99608.52
2023-04-15T09:04:50.042Z,99609.60
2023-04-15T09:07:20.733Z,99608.46
2023-04-15T09:09:52.442Z,99606.48
2023-04-15T09:12:23.015Z,99605.11
2023-04-15T09:14:54.049Z,99610.16
2023-04-15T09:17:26.605Z,99613.11
2023-04-15T09:20:11.244Z,99614.15
2023-04-15T09:22:42.249Z,99612.21
2023-04-15T09:25:31.069Z,99615.76
2023-04-15T09:28:04.387Z,99616.95
2023-04-15T09:30:35.345Z,99619.23
2023-04-15T09:33:08.636Z,99618.00
2023-04-15T09:35:39.822Z,99622.44
2023-04-15T09:38:11.637Z,99622.48
2023-04-15T09:40:43.609Z,99624.61
2023-04-15T09:43:14.070Z,99628.59
2023-04-15T09:45:50.695Z,99626.10
2023-04-15T09:48:23.093Z,99625.77
2023-04-15T09:50:54.874Z,99621.73
2023-04-15T09:53:26.486Z,99623.54
2023-04-15T09:56:00.860Z,99625.87
2023-04-15T09:58:33.840Z,99632.27
2023-04-15T10:01:09.286Z,99633.14
2023-04-15T10:03:42.419Z,99632.98
2023-04-15T10:06:13.263Z,99633.98
2023-04-15T10:08:44.226Z,99635.48
2023-04-15T10:11:15.118Z,99639.16
2023-04-15T10:13:46.106Z,99639.30
2023-04-15T10:16:18.395Z,99643.65
2023-04-15T10:18:56.727Z,99643.35
2023-04-15T10:21:29.116Z,99643.52
2023-04-15T10:24:02.529Z,99645.02
2023-04-15T10:26:33.526Z,99648.84
2023-04-15T10:29:04.948Z,99650.63
2023-04-15T10:31:38.366Z,99653.73
2023-04-15T10:34:10.873Z,99652.45
2023-04-15T10:36:41.516Z,99655.02
2023-04-15T10:42:20.500Z,99668.26
2023-04-15T10:44:57.861Z,99667.13
2023-04-15T10:47:28.614Z,99673.41
2023-04-15T10:50:03.680Z,99675.59
2023-04-15T10:52:34.248Z,99675.41
2023-04-15T10:55:14.238Z,99677.09
2023-04-15T10:57:45.561Z,99675.17
2023-04-15T11:00:18.123Z,99681.75
2023-04-15T11:02:53.644Z,99681.66
2023-04-15T11:05:45.107Z,99685.98
2023-04-15T11:08:16.352Z,99684.48
2023-04-15T11:10:59.649Z,99685.23
2023-04-15T11:13:35.033Z,99686.35
2023-04-15T11:16:08.965Z,99688.84
2023-04-15T11:18:40.902Z,99688.44
2023-04-15T11:21:14.261Z,99687.95
2023-04-15T11:23:47.012Z,99691.49
2023-04-15T11:26:17.587Z,99691.20
2023-04-15T11:28:48.636Z,99696.11
2023-04-15T11:31:20.516Z,99700.23
2023-04-15T11:33:58.258Z,99708.59
2023-04-15T11:36:29.806Z,99709.40
2023-04-15T11:39:01.258Z,99713.65
2023-04-15T11:41:32.045Z,99713.17
2023-04-15T11:44:02.917Z,99709.08
2023-04-15T11:46:36.233Z,99708.39
2023-04-15T11:49:06.860Z,99710.89
2023-04-15T11:51:37.823Z,99719.02
2023-04-15T11:54:11.021Z,99717.80
2023-04-15T11:56:41.805Z,99715.64
2023-04-15T11:59:12.445Z,99722.30
2023-04-15T12:01:49.143Z,99727.70
2023-04-15T12:04:25.109Z,99729.17
2023-04-15T12:07:05.706Z,99735.34
2023-04-15T12:09:40.868Z,99727.33
2023-04-15T12:12:12.515Z,99723.24
2023-04-15T12:14:43.310Z,99722.54
2023-04-15T12:17:14.098Z,99724.78
2023-04-15T12:19:45.724Z,99730.65
2023-04-15T12:22:17.668Z,99726.66
2023-04-15T12:24:49.541Z,99735.26
2023-04-15T12:27:21.153Z,99733.16
2023-04-15T12:29:51.652Z,99741.22
2023-04-15T12:32:22.875Z,99740.72
2023-04-15T12:34:55.285Z,99744.17
2023-04-15T12:37:26.232Z,99743.25
2023-04-15T12:39:56.696Z,99744.49
2023-04-15T12:42:27.464Z,99745.42
2023-04-15T12:44:58.029Z,99747.19
2023-04-15T12:47:28.745Z,99754.30
2023-04-15T12:49:59.255Z,99754.66
2023-04-15T12:52:29.777Z,99752.04
2023-04-15T12:55:03.616Z,99756.33
2023-04-15T12:57:34.141Z,99759.79
2023-04-15T13:00:08.242Z,99759.05
2023-04-15T13:02:39.222Z,99765.55
2023-04-15T13:05:11.075Z,99760.79
2023-04-15T13:07:41.645Z,99765.96
2023-04-15T13:10:13.192Z,99769.65
2023-04-15T13:12:43.721Z,99778.00
2023-04-15T13:15:14.895Z,99775.79
2023-04-15T13:17:45.546Z,99779.20
2023-04-15T13:20:17.324Z,99783.52
2023-04-15T13:22:47.743Z,99785.54
2023-04-15T13:25:18.305Z,99790.15
2023-04-15T13:27:49.154Z,99799.82
2023-04-15T13:30:19.785Z,99800.71
2023-04-15T13:32:50.906Z,99807.88
2023-04-15T13:35:30.822Z,99812.94
2023-04-15T13:38:01.301Z,99821.27
2023-04-15T13:40:31.844Z,99826.12
2023-04-15T13:43:03.418Z,99834.27
2023-04-15T13:45:34.089Z,99831.61
2023-04-15T13:48:04.732Z,99836.09
2023-04-15T13:50:35.078Z,99837.94
2023-04-15T13:53:08.277Z,99832.76
2023-04-15T13:55:42.850Z,99827.60
2023-04-15T13:58:13.655Z,99826.16
2023-04-15T14:00:44.193Z,99827.13
2023-04-15T14:03:14.655Z,99834.89
2023-04-15T14:05:45.733Z,99835.38
2023-04-15T14:08:16.660Z,99843.75
2023-04-15T14:10:48.453Z,99848.37
2023-04-15T14:13:19.652Z,99855.14
2023-04-15T14:15:50.413Z,99859.76
2023-04-15T14:18:21.019Z,99863.81
2023-04-15T14:20:51.753Z,99869.84
2023-04-15T14:23:22.289Z,99865.63
2023-04-15T14:25:53.064Z,99874.50
2023-04-15T14:28:23.604Z,99887.80
2023-04-15T14:30:54.147Z,99890.45
2023-04-15T14:33:24.763Z,99899.15
2023-04-15T14:35:55.139Z,99907.23
2023-04-15T14:38:25.550Z,99909.80
2023-04-15T14:40:56.013Z,99918.97
2023-04-15T14:43:26.589Z,99921.96
2023-04-15T14:45:57.744Z,99927.31
2023-04-15T14:48:28.512Z,99930.06
2023-04-15T14:50:59.082Z,99931.59
2023-04-15T14:53:29.897Z,99936.30
2023-04-15T14:56:00.717Z,99939.32
2023-04-15T14:58:31.217Z,99946.60
2023-04-15T15:01:02.867Z,99947.77
2023-04-15T15:03:33.908Z,99947.36
2023-04-15T15:06:04.732Z,99954.95
2023-04-15T15:08:36.885Z,99956.94
2023-04-15T15:11:07.738Z,99963.34
2023-04-15T15:13:38.339Z,99971.63
2023-04-15T15:16:11.851Z,99972.42
2023-04-15T15:18:43.972Z,99974.86
2023-04-15T15:21:15.662Z,99978.63
2023-04-15T15:23:48.374Z,99981.48
2023-04-15T15:26:19.389Z,99986.92
2023-04-15T15:29:01.137Z,99988.52
2023-04-15T15:31:31.655Z,99993.65
2023-04-15T15:34:02.952Z,99989.02
2023-04-15T15:36:33.802Z,99993.94
2023-04-15T15:41:35.560Z,100000.21
2023-04-15T15:44:08.756Z,100003.21
2023-04-15T15:46:39.358Z,100006.74
2023-04-15T15:49:10.010Z,100015.36
2023-04-15T15:51:43.633Z,100017.77
2023-04-15T15:54:14.225Z,100022.79
2023-04-15T15:56:45.070Z,100029.05
2023-04-15T15:59:35.802Z,100031.92
2023-04-15T16:02:06.375Z,100040.39
2023-04-15T16:04:37.785Z,100044.14
2023-04-15T16:07:11.221Z,100050.15
2023-04-15T16:09:42.724Z,100054.46
2023-04-15T16:12:13.364Z,100058.09
2023-04-15T16:14:44.244Z,100059.73
2023-04-15T16:17:17.845Z,100066.23
2023-04-15T16:19:58.753Z,100070.18
2023-04-15T16:22:31.698Z,100071.76
2023-04-15T16:25:02.572Z,100075.71
2023-04-15T16:27:33.880Z,100082.70
2023-04-15T16:30:10.705Z,100084.64
2023-04-15T16:32:41.811Z,100087.39
2023-04-15T16:35:34.515Z,100086.15
2023-04-15T16:38:06.382Z,100084.27
2023-04-15T16:40:37.968Z,100086.24
2023-04-15T16:43:21.570Z,100094.27
2023-04-15T16:45:59.498Z,100099.14
2023-04-15T16:48:30.331Z,100105.30
2023-04-15T16:51:01.030Z,100107.81
2023-04-15T16:53:32.210Z,100108.14
2023-04-15T16:56:02.771Z,100111.74
2023-04-15T16:58:33.423Z,100113.02
2023-04-15T17:01:04.384Z,100119.15
2023-04-15T17:03:35.401Z,100123.88
2023-04-15T17:06:04.933Z,100125.17
2023-04-15T17:08:35.594Z,100126.75
2023-04-15T17:11:06.407Z,100127.96
2023-04-15T17:13:36.945Z,100134.24
2023-04-15T17:16:07.960Z,100133.71
2023-04-15T17:18:39.980Z,100141.18
2023-04-15T17:21:10.680Z,100143.60
2023-04-15T17:23:41.124Z,100145.27
2023-04-15T17:26:11.800Z,100148.02
2023-04-15T17:28:42.577Z,100147.45
2023-04-15T17:31:13.345Z,100151.42
2023-04-15T17:33:57.633Z,100155.21
2023-04-15T17:36:37.549Z,100159.37
2023-04-15T17:39:08.376Z,100164.54
2023-04-15T17:41:47.521Z,100164.83
2023-04-15T17:44:19.302Z,100168.44
2023-04-15T17:46:50.195Z,100172.45
2023-04-15T17:49:20.956Z,100174.30
2023-04-15T17:51:54.858Z,100181.24
2023-04-15T17:54:27.737Z,100183.30
2023-04-15T17:57:00.117Z,100193.08
2023-04-15T17:59:34.805Z,100196.30
2023-04-15T18:02:18.658Z,100201.13
2023-04-15T18:04:52.427Z,100203.83
2023-04-15T18:07:23.270Z,100203.55
2023-04-15T18:09:56.778Z,100204.90
2023-04-15T18:12:39.067Z,100208.51
2023-04-15T18:15:14.562Z,100213.69
2023-04-15T18:17:48.708Z,100214.65
2023-04-15T18:20:19.041Z,100219.93
2023-04-15T18:22:50.646Z,100222.80
2023-04-15T18:25:21.561Z,100221.17
2023-04-15T18:28:12.341Z,100227.91
2023-04-15T18:30:45.208Z,100231.50
2023-04-15T18:33:16.284Z,100234.56
2023-04-15T18:36:02.495Z,100241.67
2023-04-15T18:38:33.081Z,100248.79
2023-04-15T18:41:05.462Z,100255.02
2023-04-15T18:43:45.958Z,100255.44
2023-04-15T18:46:30.261Z,100258.85
2023-04-15T18:49:21.127Z,100259.45
2023-04-15T18:51:54.724Z,100264.02
2023-04-15T18:54:28.348Z,100267.34
2023-04-15T18:56:58.847Z,100269.11
2023-04-15T18:59:39.747Z,100272.30
2023-04-15T19:02:13.058Z,100273.04
2023-04-15T19:04:54.087Z,100277.11
2023-04-15T19:07:44.823Z,100283.61
2023-04-15T19:10:36.527Z,100287.30
2023-04-15T19:13:10.115Z,100287.82
2023-04-15T19:15:50.117Z,100290.27
2023-04-15T19:18:40.772Z,100295.19
2023-04-15T19:21:32.832Z,100296.59
2023-04-15T19:24:23.587Z,100300.27
2023-04-15T19:26:58.269Z,100306.41
2023-04-15T19:29:38.836Z,100313.20
2023-04-15T19:32:22.416Z,100314.75
2023-04-15T19:35:02.069Z,100314.73
2023-04-15T19:37:32.611Z,100315.96
2023-04-15T19:40:14.899Z,100319.31
2023-04-15T19:42:55.553Z,100327.20
2023-04-15T19:45:36.731Z,100331.28
2023-04-15T19:48:28.063Z,100330.90
2023-04-15T19:50:59.989Z,100330.20
2023-04-15T19:53:32.100Z,100336.36
2023-04-15T19:56:05.324Z,100335.15
2023-04-15T19:58:47.789Z,100334.48
2023-04-15T20:01:28.898Z,100336.23
2023-04-15T20:04:00.154Z,100336.27
2023-04-15T20:06:33.951Z,100337.48
2023-04-15T20:09:10.373Z,100339.92
2023-04-15T20:12:45.969Z,100340.25
2023-04-15T20:14:56.124Z,100342.55
2023-04-15T20:17:47.156Z,100340.77
2023-04-15T20:20:20.335Z,100341.64
2023-04-15T20:22:52.704Z,100341.98
2023-04-15T20:25:23.266Z,100341.13
2023-04-15T20:27:53.875Z,100342.73
2023-04-15T20:30:24.548Z,100341.87
2023-04-15T20:32:55.262Z,100342.39
2023-04-15T20:35:45.994Z,100347.83
2023-04-15T20:38:16.859Z,100347.48
2023-04-15T20:40:47.658Z,100349.45
2023-04-15T20:43:24.443Z,100353.52
2023-04-15T20:46:17.878Z,100354.41
2023-04-15T20:48:51.914Z,100353.73
2023-04-15T20:51:25.244Z,100354.09
2023-04-15T20:53:56.251Z,100354.30
2023-04-15T20:56:26.779Z,100357.82
2023-04-15T20:58:57.611Z,100355.55
2023-04-15T21:01:28.548Z,100358.20
2023-04-15T21:04:01.811Z,100363.08
2023-04-15T21:06:33.939Z,100361.69
2023-04-15T21:09:07.592Z,100367.85
2023-04-15T21:14:17.170Z,100369.89
2023-04-15T21:16:47.955Z,100367.62
2023-04-15T21:19:18.764Z,100375.33
2023-04-15T21:21:51.874Z,100376.94
2023-04-15T21:24:22.475Z,100381.30
2023-04-15T21:26:56.697Z,100385.14
2023-04-15T21:29:30.062Z,100381.80
2023-04-15T21:32:00.553Z,100383.02
2023-04-15T21:34:31.083Z,100388.08
2023-04-15T21:37:21.692Z,100391.91
2023-04-15T21:39:52.281Z,100394.70
2023-04-15T21:42:22.880Z,100400.81
2023-04-15T21:44:53.376Z,100399.05
2023-04-15T21:47:26.826Z,100405.35
2023-04-15T21:50:09.440Z,100405.00
2023-04-15T21:52:40.265Z,100409.23
2023-04-15T21:55:13.522Z,100407.45
2023-04-15T21:57:43.906Z,100409.91
2023-04-15T22:00:17.991Z,100411.45
2023-04-15T22:02:48.686Z,100412.70
2023-04-15T22:05:29.881Z,100418.67
2023-04-15T22:08:03.525Z,100417.97
2023-04-15T22:10:44.761Z,100421.14
2023-04-15T22:13:28.096Z,100426.16
2023-04-15T22:16:09.944Z,100428.10
2023-04-15T22:18:43.206Z,100427.92
2023-04-15T22:21:33.822Z,100431.61
2023-04-15T22:24:36.969Z,100436.19
2023-04-15T22:26:59.015Z,100437.91
2023-04-15T22:29:29.843Z,100443.14
2023-04-15T22:32:00.371Z,100447.50
2023-04-15T22:34:30.987Z,100450.86
2023-04-15T22:37:13.647Z,100457.34
2023-04-15T22:39:54.068Z,100458.61
2023-04-15T22:42:25.119Z,100461.41
2023-04-15T22:45:16.033Z,100466.70
2023-04-15T22:47:46.712Z,100467.65
2023-04-15T22:50:39.350Z,100473.98
2023-04-15T22:53:09.859Z,100479.80
2023-04-15T22:55:40.464Z,100482.13
2023-04-15T22:58:10.967Z,100484.27
2023-04-15T23:00:43.729Z,100487.61
2023-04-15T23:03:55.803Z,100491.66
2023-04-15T23:06:24.791Z,100494.13
2023-04-15T23:08:58.631Z,100494.99
2023-04-15T23:11:29.208Z,100493.77
2023-04-15T23:14:09.809Z,100495.54
2023-04-15T23:17:00.914Z,100497.84
2023-04-15T23:19:31.414Z,100499.45
2023-04-15T23:22:10.618Z,100502.81
2023-04-15T23:24:51.417Z,100501.45
2023-04-15T23:27:22.855Z,100505.52
2023-04-15T23:29:53.245Z,100506.45
2023-04-15T23:32:29.249Z,100507.52
2023-04-15T23:34:59.860Z,100509.30
2023-04-15T23:37:32.401Z,100507.23
2023-04-15T23:40:21.316Z,100504.64
2023-04-15T23:43:12.050Z,100504.33
2023-04-15T23:46:02.701Z,100503.85
2023-04-15T23:48:35.825Z,100507.23
2023-04-15T23:51:07.069Z,100509.18
2023-04-15T23:53:37.680Z,100510.65
2023-04-15T23:56:19.479Z,100507.89
2023-04-15T23:58:52.509Z,100507.40
